首页
METAR-TAF:

METAR-TAF

机场 :

東京國際機場

东京国际机场, 日本

纬度: 35-33N, 经度: 139-47E, 海拔: 5米

当前天气观测

该预报发布于44分钟前的21:30 UTC
风速6节,风向北转东北
温度 4°C
湿度 65%
气压 1010 hPa
能见度10公里或以上
少量云层高于1500英尺
多云层高于16000英尺
多云

METAR: RJTT 152130Z 02006KT 9999 FEW015 BKN160 BKN/// 04/M02 Q1010 NOSIG

时间: 07:14 (22:14 UTC)

预报

该预报发布于5小时和9分钟前的17:05 UTC
预报有效从15日的 18点(UTC)到 17日的 00点(UTC)
风速6节,风向
能见度10公里或以上
少量云层高于3000英尺
成为
从 16日的 06点(UTC)到 16日的 09点(UTC)
风速16节,风向北转西北

TAF: RJTT 151705Z 1518/1700 36006KT 9999 FEW030 BECMG 1606/1609 34016KT

超过4000个机场的气象观测和天气预报(METAR&TAF报告)。

可查询的气象台以黄色和红色小点在地图上表示。

将鼠标移到小点上方,可查看气象台名称。

然后点击查看天气观测和预报。

如需切换地图:点击带黑十字的绿色按钮放大地图;点击带横线的绿色按钮缩小地图;或者点击绿色箭头查看邻近地区的地图。


METAR-TAF: